sensor_id;sensor_type;location;lat;lon;timestamp;pressure;altitude;pressure_sealevel;temperature;humidity
54816;BME280;40715;55.752;37.884;2022-12-18T00:00:50;98526.38;;;3.14;78.37
54816;BME280;40715;55.752;37.884;2022-12-18T00:03:18;98509.03;;;3.13;78.45
54816;BME280;40715;55.752;37.884;2022-12-18T00:05:51;98504.66;;;3.15;78.54
54816;BME280;40715;55.752;37.884;2022-12-18T00:08:36;98493.41;;;3.14;78.61
54816;BME280;40715;55.752;37.884;2022-12-18T00:11:23;98485.63;;;3.11;78.62
54816;BME280;40715;55.752;37.884;2022-12-18T00:13:51;98505.53;;;3.17;78.48
54816;BME280;40715;55.752;37.884;2022-12-18T00:16:27;98496.81;;;3.18;78.56
54816;BME280;40715;55.752;37.884;2022-12-18T00:18:58;98479.50;;;3.17;78.65
54816;BME280;40715;55.752;37.884;2022-12-18T00:21:30;98479.50;;;3.17;78.73
54816;BME280;40715;55.752;37.884;2022-12-18T00:23:58;98478.59;;;3.18;78.41
54816;BME280;40715;55.752;37.884;2022-12-18T00:26:28;98453.50;;;3.15;78.39
54816;BME280;40715;55.752;37.884;2022-12-18T00:29:02;98474.34;;;3.14;78.53
54816;BME280;40715;55.752;37.884;2022-12-18T00:31:31;98472.59;;;3.13;78.07
54816;BME280;40715;55.752;37.884;2022-12-18T00:34:00;98457.00;;;3.11;78.35
54816;BME280;40715;55.752;37.884;2022-12-18T00:36:30;98469.16;;;3.09;78.07
54816;BME280;40715;55.752;37.884;2022-12-18T00:39:03;98449.25;;;3.08;78.27
54816;BME280;40715;55.752;37.884;2022-12-18T00:41:33;98454.44;;;3.08;78.16
54816;BME280;40715;55.752;37.884;2022-12-18T00:44:22;98457.03;;;3.06;78.29
54816;BME280;40715;55.752;37.884;2022-12-18T00:46:53;98464.84;;;3.05;78.24
54816;BME280;40715;55.752;37.884;2022-12-18T00:49:22;98430.19;;;3.03;78.23
54816;BME280;40715;55.752;37.884;2022-12-18T00:51:49;98438.03;;;3.00;78.31
54816;BME280;40715;55.752;37.884;2022-12-18T00:54:17;98436.31;;;2.99;78.34
54816;BME280;40715;55.752;37.884;2022-12-18T00:56:44;98417.25;;;2.98;78.43
54816;BME280;40715;55.752;37.884;2022-12-18T00:59:15;98410.31;;;2.97;78.22
54816;BME280;40715;55.752;37.884;2022-12-18T01:01:42;98409.47;;;2.97;78.51
54816;BME280;40715;55.752;37.884;2022-12-18T01:04:09;98402.47;;;2.99;78.63
54816;BME280;40715;55.752;37.884;2022-12-18T01:06:36;98401.56;;;3.03;78.73
54816;BME280;40715;55.752;37.884;2022-12-18T01:09:03;98398.06;;;3.05;78.50
54816;BME280;40715;55.752;37.884;2022-12-18T01:11:30;98391.97;;;3.06;78.61
54816;BME280;40715;55.752;37.884;2022-12-18T01:13:57;98387.63;;;3.08;78.69
54816;BME280;40715;55.752;37.884;2022-12-18T01:16:27;98378.97;;;3.08;78.37
54816;BME280;40715;55.752;37.884;2022-12-18T01:18:54;98372.00;;;3.08;78.46
54816;BME280;40715;55.752;37.884;2022-12-18T01:21:23;98362.44;;;3.09;78.72
54816;BME280;40715;55.752;37.884;2022-12-18T01:23:52;98365.91;;;3.11;78.42
54816;BME280;40715;55.752;37.884;2022-12-18T01:26:20;98371.94;;;3.13;78.50
54816;BME280;40715;55.752;37.884;2022-12-18T01:28:47;98356.34;;;3.13;78.64
54816;BME280;40715;55.752;37.884;2022-12-18T01:31:32;98361.50;;;3.16;78.69
54816;BME280;40715;55.752;37.884;2022-12-18T01:34:04;98357.16;;;3.17;78.75
54816;BME280;40715;55.752;37.884;2022-12-18T01:36:33;98358.03;;;3.16;78.82
54816;BME280;40715;55.752;37.884;2022-12-18T01:39:06;98363.19;;;3.19;78.61
54816;BME280;40715;55.752;37.884;2022-12-18T01:41:34;98370.13;;;3.20;78.59
54816;BME280;40715;55.752;37.884;2022-12-18T01:47:25;98364.06;;;3.21;78.90
54816;BME280;40715;55.752;37.884;2022-12-18T01:49:53;98365.78;;;3.20;78.92
54816;BME280;40715;55.752;37.884;2022-12-18T01:52:21;98369.25;;;3.21;78.76
54816;BME280;40715;55.752;37.884;2022-12-18T01:54:50;98361.47;;;3.19;78.38
54816;BME280;40715;55.752;37.884;2022-12-18T01:57:18;98364.06;;;3.18;78.66
54816;BME280;40715;55.752;37.884;2022-12-18T01:59:47;98355.41;;;3.19;78.44
54816;BME280;40715;55.752;37.884;2022-12-18T02:02:17;98357.09;;;3.21;78.58
54816;BME280;40715;55.752;37.884;2022-12-18T02:04:44;98353.63;;;3.22;78.55
54816;BME280;40715;55.752;37.884;2022-12-18T02:10:07;98348.38;;;3.25;78.55
54816;BME280;40715;55.752;37.884;2022-12-18T02:13:38;98340.53;;;3.27;79.20
54816;BME280;40715;55.752;37.884;2022-12-18T02:18:45;98327.53;;;3.27;78.78
54816;BME280;40715;55.752;37.884;2022-12-18T02:21:32;98341.38;;;3.27;78.63
54816;BME280;40715;55.752;37.884;2022-12-18T02:26:56;98355.28;;;3.28;79.16
54816;BME280;40715;55.752;37.884;2022-12-18T02:29:27;98343.16;;;3.25;79.01
54816;BME280;40715;55.752;37.884;2022-12-18T02:31:58;98357.91;;;3.26;78.76
54816;BME280;40715;55.752;37.884;2022-12-18T02:34:29;98348.31;;;3.28;78.85
54816;BME280;40715;55.752;37.884;2022-12-18T02:36:58;98340.50;;;3.30;78.86
54816;BME280;40715;55.752;37.884;2022-12-18T02:39:29;98324.00;;;3.31;79.00
54816;BME280;40715;55.752;37.884;2022-12-18T02:41:57;98337.88;;;3.32;78.79
54816;BME280;40715;55.752;37.884;2022-12-18T02:44:26;98335.25;;;3.32;78.96
54816;BME280;40715;55.752;37.884;2022-12-18T02:46:53;98347.41;;;3.33;79.21
54816;BME280;40715;55.752;37.884;2022-12-18T02:49:55;98346.53;;;3.34;79.07
54816;BME280;40715;55.752;37.884;2022-12-18T02:57:58;98348.22;;;3.36;79.05
54816;BME280;40715;55.752;37.884;2022-12-18T03:00:36;98345.59;;;3.36;79.16
54816;BME280;40715;55.752;37.884;2022-12-18T03:03:50;98340.41;;;3.38;79.45
54816;BME280;40715;55.752;37.884;2022-12-18T03:09:03;98340.34;;;3.42;79.14
54816;BME280;40715;55.752;37.884;2022-12-18T03:11:34;98327.28;;;3.44;79.42
54816;BME280;40715;55.752;37.884;2022-12-18T03:14:30;98321.22;;;3.45;79.46
54816;BME280;40715;55.752;37.884;2022-12-18T03:17:01;98318.59;;;3.45;79.50
54816;BME280;40715;55.752;37.884;2022-12-18T03:19:32;98314.25;;;3.45;79.33
54816;BME280;40715;55.752;37.884;2022-12-18T03:22:02;98314.25;;;3.45;79.20
54816;BME280;40715;55.752;37.884;2022-12-18T03:24:31;98306.41;;;3.47;79.58
54816;BME280;40715;55.752;37.884;2022-12-18T03:27:06;98315.06;;;3.48;79.22
54816;BME280;40715;55.752;37.884;2022-12-18T03:29:40;98342.81;;;3.50;79.08
54816;BME280;40715;55.752;37.884;2022-12-18T03:32:17;98337.63;;;3.49;79.19
54816;BME280;40715;55.752;37.884;2022-12-18T03:34:47;98348.03;;;3.50;79.41
54816;BME280;40715;55.752;37.884;2022-12-18T03:37:15;98346.28;;;3.49;79.00
54816;BME280;40715;55.752;37.884;2022-12-18T03:39:42;98348.06;;;3.49;79.45
54816;BME280;40715;55.752;37.884;2022-12-18T03:45:04;98360.22;;;3.48;79.46
54816;BME280;40715;55.752;37.884;2022-12-18T03:50:21;98329.84;;;3.47;79.48
54816;BME280;40715;55.752;37.884;2022-12-18T03:53:01;98320.31;;;3.46;79.59
54816;BME280;40715;55.752;37.884;2022-12-18T03:55:33;98335.94;;;3.46;79.38
54816;BME280;40715;55.752;37.884;2022-12-18T03:58:02;98340.28;;;3.45;79.25
54816;BME280;40715;55.752;37.884;2022-12-18T04:00:31;98331.59;;;3.47;79.78
54816;BME280;40715;55.752;37.884;2022-12-18T04:03:00;98322.06;;;3.45;79.25
54816;BME280;40715;55.752;37.884;2022-12-18T04:05:29;98324.69;;;3.44;79.46
54816;BME280;40715;55.752;37.884;2022-12-18T04:07:57;98327.28;;;3.44;79.69
54816;BME280;40715;55.752;37.884;2022-12-18T04:10:24;98328.13;;;3.46;79.44
54816;BME280;40715;55.752;37.884;2022-12-18T04:12:55;98335.94;;;3.46;79.69
54816;BME280;40715;55.752;37.884;2022-12-18T04:15:24;98326.41;;;3.47;79.54
54816;BME280;40715;55.752;37.884;2022-12-18T04:17:51;98324.63;;;3.47;79.38
54816;BME280;40715;55.752;37.884;2022-12-18T04:20:18;98324.69;;;3.44;79.45
54816;BME280;40715;55.752;37.884;2022-12-18T04:22:45;98328.19;;;3.41;79.44
54816;BME280;40715;55.752;37.884;2022-12-18T04:25:12;98335.13;;;3.42;79.38
54816;BME280;40715;55.752;37.884;2022-12-18T04:27:39;98340.34;;;3.42;79.75
54816;BME280;40715;55.752;37.884;2022-12-18T04:30:07;98350.75;;;3.42;79.75
54816;BME280;40715;55.752;37.884;2022-12-18T04:32:34;98364.66;;;3.41;79.49
54816;BME280;40715;55.752;37.884;2022-12-18T04:35:02;98371.59;;;3.42;79.37
54816;BME280;40715;55.752;37.884;2022-12-18T04:37:30;98370.72;;;3.43;79.37
54816;BME280;40715;55.752;37.884;2022-12-18T04:39:57;98367.22;;;3.43;79.45
54816;BME280;40715;55.752;37.884;2022-12-18T04:42:24;98385.44;;;3.43;79.46
54816;BME280;40715;55.752;37.884;2022-12-18T04:44:51;98376.78;;;3.42;79.52
54816;BME280;40715;55.752;37.884;2022-12-18T04:47:17;98396.75;;;3.40;79.76
54816;BME280;40715;55.752;37.884;2022-12-18T04:49:44;98402.81;;;3.42;79.49
54816;BME280;40715;55.752;37.884;2022-12-18T04:52:11;98400.22;;;3.42;79.82
54816;BME280;40715;55.752;37.884;2022-12-18T04:54:38;98404.56;;;3.43;79.77
54816;BME280;40715;55.752;37.884;2022-12-18T04:57:05;98418.44;;;3.42;79.65
54816;BME280;40715;55.752;37.884;2022-12-18T04:59:32;98419.25;;;3.46;79.58
54816;BME280;40715;55.752;37.884;2022-12-18T05:01:59;98443.59;;;3.45;79.48
54816;BME280;40715;55.752;37.884;2022-12-18T05:04:26;98444.44;;;3.45;79.56
54816;BME280;40715;55.752;37.884;2022-12-18T05:06:53;98444.44;;;3.45;79.30
54816;BME280;40715;55.752;37.884;2022-12-18T05:09:20;98453.09;;;3.46;79.34
54816;BME280;40715;55.752;37.884;2022-12-18T05:11:47;98460.06;;;3.47;79.37
54816;BME280;40715;55.752;37.884;2022-12-18T05:14:14;98458.28;;;3.48;79.63
54816;BME280;40715;55.752;37.884;2022-12-18T05:16:41;98464.41;;;3.47;79.39
54816;BME280;40715;55.752;37.884;2022-12-18T05:19:07;98422.75;;;3.47;79.44
54816;BME280;40715;55.752;37.884;2022-12-18T05:21:34;98433.16;;;3.47;79.61
54816;BME280;40715;55.752;37.884;2022-12-18T05:24:01;98444.47;;;3.44;79.40
54816;BME280;40715;55.752;37.884;2022-12-18T05:26:28;98429.72;;;3.43;79.54
54816;BME280;40715;55.752;37.884;2022-12-18T05:28:55;98432.34;;;3.41;79.75
54816;BME280;40715;55.752;37.884;2022-12-18T05:31:22;98451.41;;;3.42;79.58
54816;BME280;40715;55.752;37.884;2022-12-18T05:33:49;98449.69;;;3.42;79.69
54816;BME280;40715;55.752;37.884;2022-12-18T05:36:16;98454.03;;;3.42;79.53
54816;BME280;40715;55.752;37.884;2022-12-18T05:38:43;98458.34;;;3.43;79.47
54816;BME280;40715;55.752;37.884;2022-12-18T05:41:10;98462.72;;;3.42;79.64
54816;BME280;40715;55.752;37.884;2022-12-18T05:43:38;98472.28;;;3.40;79.54
54816;BME280;40715;55.752;37.884;2022-12-18T05:46:08;98486.19;;;3.41;79.64
54816;BME280;40715;55.752;37.884;2022-12-18T05:48:35;98482.72;;;3.39;79.55
54816;BME280;40715;55.752;37.884;2022-12-18T05:51:07;98500.94;;;3.39;79.87
54816;BME280;40715;55.752;37.884;2022-12-18T05:53:35;98486.19;;;3.41;79.61
54816;BME280;40715;55.752;37.884;2022-12-18T05:56:06;98497.41;;;3.43;79.73
54816;BME280;40715;55.752;37.884;2022-12-18T05:58:34;98502.63;;;3.43;79.60
54816;BME280;40715;55.752;37.884;2022-12-18T06:01:20;98511.31;;;3.45;79.63
54816;BME280;40715;55.752;37.884;2022-12-18T06:03:47;98500.88;;;3.45;79.43
54816;BME280;40715;55.752;37.884;2022-12-18T06:06:18;98499.16;;;3.44;79.55
54816;BME280;40715;55.752;37.884;2022-12-18T06:08:48;98524.34;;;3.43;79.58
54816;BME280;40715;55.752;37.884;2022-12-18T06:11:20;98528.66;;;3.43;79.64
54816;BME280;40715;55.752;37.884;2022-12-18T06:13:53;98524.31;;;3.42;79.72
54816;BME280;40715;55.752;37.884;2022-12-18T06:16:24;98527.81;;;3.42;79.54
54816;BME280;40715;55.752;37.884;2022-12-18T06:18:51;98528.69;;;3.41;79.65
54816;BME280;40715;55.752;37.884;2022-12-18T06:21:18;98534.75;;;3.42;79.65
54816;BME280;40715;55.752;37.884;2022-12-18T06:23:45;98546.91;;;3.43;79.78
54816;BME280;40715;55.752;37.884;2022-12-18T06:26:12;98544.28;;;3.43;79.58
54816;BME280;40715;55.752;37.884;2022-12-18T06:28:39;98533.00;;;3.44;79.67
54816;BME280;40715;55.752;37.884;2022-12-18T06:31:07;98529.56;;;3.43;79.65
54816;BME280;40715;55.752;37.884;2022-12-18T06:33:34;98551.25;;;3.44;79.60
54816;BME280;40715;55.752;37.884;2022-12-18T06:36:08;98545.19;;;3.40;79.41
54816;BME280;40715;55.752;37.884;2022-12-18T06:38:37;98553.84;;;3.42;79.41
54816;BME280;40715;55.752;37.884;2022-12-18T06:41:08;98554.72;;;3.43;79.60
54816;BME280;40715;55.752;37.884;2022-12-18T06:43:36;98546.84;;;3.48;79.42
54816;BME280;40715;55.752;37.884;2022-12-18T06:46:04;98547.72;;;3.48;79.67
54816;BME280;40715;55.752;37.884;2022-12-18T06:48:31;98554.63;;;3.49;79.43
54816;BME280;40715;55.752;37.884;2022-12-18T06:50:59;98557.22;;;3.49;79.43
54816;BME280;40715;55.752;37.884;2022-12-18T06:53:26;98578.94;;;3.51;79.49
54816;BME280;40715;55.752;37.884;2022-12-18T06:56:05;98588.47;;;3.52;79.67
54816;BME280;40715;55.752;37.884;2022-12-18T06:58:36;98592.78;;;3.55;79.46
54816;BME280;40715;55.752;37.884;2022-12-18T07:01:04;98608.38;;;3.58;79.47
54816;BME280;40715;55.752;37.884;2022-12-18T07:03:32;98611.84;;;3.58;79.37
54816;BME280;40715;55.752;37.884;2022-12-18T07:05:59;98612.69;;;3.59;79.42
54816;BME280;40715;55.752;37.884;2022-12-18T07:08:28;98606.63;;;3.60;79.52
54816;BME280;40715;55.752;37.884;2022-12-18T07:10:55;98599.66;;;3.60;79.46
54816;BME280;40715;55.752;37.884;2022-12-18T07:13:23;98628.31;;;3.62;79.37
54816;BME280;40715;55.752;37.884;2022-12-18T07:15:49;98625.69;;;3.63;79.38
54816;BME280;40715;55.752;37.884;2022-12-18T07:18:16;98622.19;;;3.65;79.48
54816;BME280;40715;55.752;37.884;2022-12-18T07:20:43;98616.97;;;3.66;79.37
54816;BME280;40715;55.752;37.884;2022-12-18T07:23:10;98627.38;;;3.68;79.36
54816;BME280;40715;55.752;37.884;2022-12-18T07:25:37;98623.03;;;3.70;79.33
54816;BME280;40715;55.752;37.884;2022-12-18T07:28:04;98628.22;;;3.71;79.35
54816;BME280;40715;55.752;37.884;2022-12-18T07:30:31;98623.84;;;3.72;79.22
54816;BME280;40715;55.752;37.884;2022-12-18T07:32:58;98643.84;;;3.71;79.35
54816;BME280;40715;55.752;37.884;2022-12-18T07:35:25;98638.63;;;3.71;79.35
54816;BME280;40715;55.752;37.884;2022-12-18T07:37:52;98657.75;;;3.70;79.47
54816;BME280;40715;55.752;37.884;2022-12-18T07:40:19;98662.91;;;3.73;79.27
54816;BME280;40715;55.752;37.884;2022-12-18T07:42:45;98664.63;;;3.76;79.26
54816;BME280;40715;55.752;37.884;2022-12-18T07:45:12;98678.53;;;3.78;79.36
54816;BME280;40715;55.752;37.884;2022-12-18T07:47:39;98673.31;;;3.78;79.45
54816;BME280;40715;55.752;37.884;2022-12-18T07:50:08;98674.16;;;3.80;79.32
54816;BME280;40715;55.752;37.884;2022-12-18T07:52:35;98672.44;;;3.80;79.28
54816;BME280;40715;55.752;37.884;2022-12-18T07:55:02;98674.13;;;3.82;79.17
54816;BME280;40715;55.752;37.884;2022-12-18T07:57:29;98682.84;;;3.82;79.29
54816;BME280;40715;55.752;37.884;2022-12-18T08:00:16;98674.13;;;3.83;79.31
54816;BME280;40715;55.752;37.884;2022-12-18T08:02:43;98678.44;;;3.84;79.25
54816;BME280;40715;55.752;37.884;2022-12-18T08:05:11;98683.66;;;3.86;79.34
54816;BME280;40715;55.752;37.884;2022-12-18T08:07:39;98681.03;;;3.86;79.19
54816;BME280;40715;55.752;37.884;2022-12-18T08:10:06;98689.72;;;3.88;79.20
54816;BME280;40715;55.752;37.884;2022-12-18T08:12:33;98684.50;;;3.89;79.25
54816;BME280;40715;55.752;37.884;2022-12-18T08:15:00;98676.69;;;3.89;79.29
54816;BME280;40715;55.752;37.884;2022-12-18T08:17:29;98682.72;;;3.91;79.12
54816;BME280;40715;55.752;37.884;2022-12-18T08:19:56;98701.81;;;3.92;79.23
54816;BME280;40715;55.752;37.884;2022-12-18T08:22:22;98702.69;;;3.94;79.09
54816;BME280;40715;55.752;37.884;2022-12-18T08:24:49;98722.66;;;3.95;79.17
54816;BME280;40715;55.752;37.884;2022-12-18T08:27:16;98721.78;;;3.94;79.17
54816;BME280;40715;55.752;37.884;2022-12-18T08:29:56;98721.78;;;3.94;79.08
54816;BME280;40715;55.752;37.884;2022-12-18T08:32:24;98738.28;;;3.95;79.01
54816;BME280;40715;55.752;37.884;2022-12-18T08:34:52;98755.63;;;3.97;78.97
54816;BME280;40715;55.752;37.884;2022-12-18T08:37:19;98753.88;;;4.00;79.23
54816;BME280;40715;55.752;37.884;2022-12-18T08:39:46;75587.63;;;4.02;100.00
54816;BME280;40715;55.752;37.884;2022-12-18T08:42:13;57899.84;;;-146.33;100.00
54816;BME280;40715;55.752;37.884;2022-12-18T08:44:59;57899.84;;;-146.33;100.00
54816;BME280;40715;55.752;37.884;2022-12-18T08:47:27;57899.84;;;-146.33;100.00
54816;BME280;40715;55.752;37.884;2022-12-18T08:49:54;57899.84;;;-146.33;100.00
54816;BME280;40715;55.752;37.884;2022-12-18T08:52:21;57899.84;;;-146.33;100.00
54816;BME280;40715;55.752;37.884;2022-12-18T08:54:48;57899.84;;;-146.33;100.00
54816;BME280;40715;55.752;37.884;2022-12-18T08:57:15;57899.84;;;-146.33;100.00
54816;BME280;40715;55.752;37.884;2022-12-18T08:59:42;57899.84;;;-146.33;100.00
54816;BME280;40715;55.752;37.884;2022-12-18T09:02:10;57899.84;;;-146.33;100.00
54816;BME280;40715;55.752;37.884;2022-12-18T09:04:38;57899.84;;;-146.33;100.00
54816;BME280;40715;55.752;37.884;2022-12-18T09:07:06;57899.84;;;-146.33;100.00
54816;BME280;40715;55.752;37.884;2022-12-18T09:09:33;57899.84;;;-146.33;100.00
54816;BME280;40715;55.752;37.884;2022-12-18T09:12:00;57899.84;;;-146.33;100.00
54816;BME280;40715;55.752;37.884;2022-12-18T09:14:30;57899.84;;;-146.33;100.00
54816;BME280;40715;55.752;37.884;2022-12-18T09:16:58;57899.84;;;-146.33;100.00
54816;BME280;40715;55.752;37.884;2022-12-18T09:19:25;57899.84;;;-146.33;100.00
54816;BME280;40715;55.752;37.884;2022-12-18T09:21:52;57899.84;;;-146.33;100.00
54816;BME280;40715;55.752;37.884;2022-12-18T09:24:19;57899.84;;;-146.33;100.00
54816;BME280;40715;55.752;37.884;2022-12-18T09:26:53;57899.84;;;-146.33;100.00
54816;BME280;40715;55.752;37.884;2022-12-18T09:29:23;57899.84;;;-146.33;100.00
54816;BME280;40715;55.752;37.884;2022-12-18T09:31:53;57899.84;;;-146.33;100.00
54816;BME280;40715;55.752;37.884;2022-12-18T09:34:20;57899.84;;;-146.33;100.00
54816;BME280;40715;55.752;37.884;2022-12-18T09:36:48;57899.84;;;-146.33;100.00
54816;BME280;40715;55.752;37.884;2022-12-18T09:39:15;57899.84;;;-146.33;100.00
54816;BME280;40715;55.752;37.884;2022-12-18T09:41:53;57899.84;;;-146.33;100.00
54816;BME280;40715;55.752;37.884;2022-12-18T09:47:04;57899.84;;;-146.33;100.00
54816;BME280;40715;55.752;37.884;2022-12-18T09:49:40;57899.84;;;-146.33;100.00
54816;BME280;40715;55.752;37.884;2022-12-18T09:52:24;57899.84;;;-146.33;100.00
54816;BME280;40715;55.752;37.884;2022-12-18T09:57:55;57899.84;;;-146.33;100.00
54816;BME280;40715;55.752;37.884;2022-12-18T10:00:24;57899.84;;;-146.33;100.00
54816;BME280;40715;55.752;37.884;2022-12-18T10:03:14;57899.84;;;-146.33;100.00
54816;BME280;40715;55.752;37.884;2022-12-18T10:08:54;57899.84;;;-146.33;100.00
54816;BME280;40715;55.752;37.884;2022-12-18T10:11:28;57899.84;;;-146.33;100.00
54816;BME280;40715;55.752;37.884;2022-12-18T10:17:08;57899.84;;;-146.33;100.00
54816;BME280;40715;55.752;37.884;2022-12-18T10:22:52;57899.84;;;-146.33;100.00
54816;BME280;40715;55.752;37.884;2022-12-18T10:25:29;57899.84;;;-146.33;100.00
54816;BME280;40715;55.752;37.884;2022-12-18T10:28:13;57899.84;;;-146.33;100.00
54816;BME280;40715;55.752;37.884;2022-12-18T10:30:41;57899.84;;;-146.33;100.00
54816;BME280;40715;55.752;37.884;2022-12-18T10:33:21;57899.84;;;-146.33;100.00
54816;BME280;40715;55.752;37.884;2022-12-18T10:35:51;57899.84;;;-146.33;100.00
54816;BME280;40715;55.752;37.884;2022-12-18T10:43:29;57899.84;;;-146.33;100.00
54816;BME280;40715;55.752;37.884;2022-12-18T10:46:15;57899.84;;;-146.33;100.00
54816;BME280;40715;55.752;37.884;2022-12-18T10:48:54;57899.84;;;-146.33;100.00
54816;BME280;40715;55.752;37.884;2022-12-18T10:51:30;57899.84;;;-146.33;100.00
54816;BME280;40715;55.752;37.884;2022-12-18T10:54:14;57899.84;;;-146.33;100.00
54816;BME280;40715;55.752;37.884;2022-12-18T10:56:46;57899.84;;;-146.33;100.00
54816;BME280;40715;55.752;37.884;2022-12-18T10:59:17;57899.84;;;-146.33;100.00
54816;BME280;40715;55.752;37.884;2022-12-18T11:04:30;57899.84;;;-146.33;100.00
54816;BME280;40715;55.752;37.884;2022-12-18T11:07:00;57899.84;;;-146.33;100.00
54816;BME280;40715;55.752;37.884;2022-12-18T11:09:34;57899.84;;;-146.33;100.00
54816;BME280;40715;55.752;37.884;2022-12-18T11:12:17;57899.84;;;-146.33;100.00
54816;BME280;40715;55.752;37.884;2022-12-18T11:14:49;57899.84;;;-146.33;100.00
54816;BME280;40715;55.752;37.884;2022-12-18T11:17:43;57899.84;;;-146.33;100.00
54816;BME280;40715;55.752;37.884;2022-12-18T11:20:36;57899.84;;;-146.33;100.00
54816;BME280;40715;55.752;37.884;2022-12-18T11:23:12;57899.84;;;-146.33;100.00
54816;BME280;40715;55.752;37.884;2022-12-18T11:25:58;57899.84;;;-146.33;100.00
54816;BME280;40715;55.752;37.884;2022-12-18T11:31:25;57899.84;;;-146.33;100.00
54816;BME280;40715;55.752;37.884;2022-12-18T11:34:13;57899.84;;;-146.33;100.00
54816;BME280;40715;55.752;37.884;2022-12-18T11:36:55;57899.84;;;-146.33;100.00
54816;BME280;40715;55.752;37.884;2022-12-18T11:39:40;57899.84;;;-146.33;100.00
54816;BME280;40715;55.752;37.884;2022-12-18T11:42:19;57899.84;;;-146.33;100.00
54816;BME280;40715;55.752;37.884;2022-12-18T11:53:58;57899.84;;;-146.33;100.00
54816;BME280;40715;55.752;37.884;2022-12-18T11:56:58;57899.84;;;-146.33;100.00
54816;BME280;40715;55.752;37.884;2022-12-18T12:00:29;57899.84;;;-146.33;100.00
54816;BME280;40715;55.752;37.884;2022-12-18T12:03:27;57899.84;;;-146.33;100.00
54816;BME280;40715;55.752;37.884;2022-12-18T12:14:54;57899.84;;;-146.33;100.00
54816;BME280;40715;55.752;37.884;2022-12-18T12:20:31;57899.84;;;-146.33;100.00
54816;BME280;40715;55.752;37.884;2022-12-18T12:23:16;57899.84;;;-146.33;100.00
54816;BME280;40715;55.752;37.884;2022-12-18T12:26:16;57899.84;;;-146.33;100.00
54816;BME280;40715;55.752;37.884;2022-12-18T12:38:05;57899.84;;;-146.33;100.00
54816;BME280;40715;55.752;37.884;2022-12-18T12:40:43;57899.84;;;-146.33;100.00
54816;BME280;40715;55.752;37.884;2022-12-18T12:48:55;57899.84;;;-146.33;100.00
54816;BME280;40715;55.752;37.884;2022-12-18T12:51:29;57899.84;;;-146.33;100.00
54816;BME280;40715;55.752;37.884;2022-12-18T12:54:06;57899.84;;;-146.33;100.00
54816;BME280;40715;55.752;37.884;2022-12-18T13:05:22;57899.84;;;-146.33;100.00
54816;BME280;40715;55.752;37.884;2022-12-18T13:10:59;57899.84;;;-146.33;100.00
54816;BME280;40715;55.752;37.884;2022-12-18T13:13:51;57899.84;;;-146.33;100.00
54816;BME280;40715;55.752;37.884;2022-12-18T13:16:26;57899.84;;;-146.33;100.00
54816;BME280;40715;55.752;37.884;2022-12-18T13:19:21;57899.84;;;-146.33;100.00
54816;BME280;40715;55.752;37.884;2022-12-18T13:21:54;57899.84;;;-146.33;100.00
54816;BME280;40715;55.752;37.884;2022-12-18T13:24:27;57899.84;;;-146.33;100.00
54816;BME280;40715;55.752;37.884;2022-12-18T13:26:59;57899.84;;;-146.33;100.00
54816;BME280;40715;55.752;37.884;2022-12-18T13:29:45;57899.84;;;-146.33;100.00
54816;BME280;40715;55.752;37.884;2022-12-18T13:32:24;57899.84;;;-146.33;100.00
54816;BME280;40715;55.752;37.884;2022-12-18T13:37:54;57899.84;;;-146.33;100.00
54816;BME280;40715;55.752;37.884;2022-12-18T13:43:33;57899.84;;;-146.33;100.00
54816;BME280;40715;55.752;37.884;2022-12-18T13:46:27;57899.84;;;-146.33;100.00
54816;BME280;40715;55.752;37.884;2022-12-18T13:51:29;57899.84;;;-146.33;100.00
54816;BME280;40715;55.752;37.884;2022-12-18T13:54:36;57899.84;;;-146.33;100.00
54816;BME280;40715;55.752;37.884;2022-12-18T13:57:29;57899.84;;;-146.33;100.00
54816;BME280;40715;55.752;37.884;2022-12-18T13:59:58;57899.84;;;-146.33;100.00
54816;BME280;40715;55.752;37.884;2022-12-18T14:02:28;57899.84;;;-146.33;100.00
54816;BME280;40715;55.752;37.884;2022-12-18T14:04:55;57899.84;;;-146.33;100.00
54816;BME280;40715;55.752;37.884;2022-12-18T14:07:24;57899.84;;;-146.33;100.00
54816;BME280;40715;55.752;37.884;2022-12-18T14:09:57;57899.84;;;-146.33;100.00
54816;BME280;40715;55.752;37.884;2022-12-18T14:12:48;57899.84;;;-146.33;100.00
54816;BME280;40715;55.752;37.884;2022-12-18T14:17:55;57899.84;;;-146.33;100.00
54816;BME280;40715;55.752;37.884;2022-12-18T14:20:28;57899.84;;;-146.33;100.00
54816;BME280;40715;55.752;37.884;2022-12-18T14:23:34;57899.84;;;-146.33;100.00
54816;BME280;40715;55.752;37.884;2022-12-18T14:26:26;57899.84;;;-146.33;100.00
54816;BME280;40715;55.752;37.884;2022-12-18T14:32:13;57899.84;;;-146.33;100.00
54816;BME280;40715;55.752;37.884;2022-12-18T14:34:51;57899.84;;;-146.33;100.00
54816;BME280;40715;55.752;37.884;2022-12-18T14:37:30;57899.84;;;-146.33;100.00
54816;BME280;40715;55.752;37.884;2022-12-18T14:40:03;57899.84;;;-146.33;100.00
54816;BME280;40715;55.752;37.884;2022-12-18T14:42:37;57899.84;;;-146.33;100.00
54816;BME280;40715;55.752;37.884;2022-12-18T14:51:05;57899.84;;;-146.33;100.00
54816;BME280;40715;55.752;37.884;2022-12-18T14:53:38;57899.84;;;-146.33;100.00
54816;BME280;40715;55.752;37.884;2022-12-18T14:56:30;57899.84;;;-146.33;100.00
54816;BME280;40715;55.752;37.884;2022-12-18T14:59:13;57899.84;;;-146.33;100.00
54816;BME280;40715;55.752;37.884;2022-12-18T15:02:01;57899.84;;;-146.33;100.00
54816;BME280;40715;55.752;37.884;2022-12-18T15:04:36;57899.84;;;-146.33;100.00
54816;BME280;40715;55.752;37.884;2022-12-18T15:10:19;57899.84;;;-146.33;100.00
54816;BME280;40715;55.752;37.884;2022-12-18T15:13:09;57899.84;;;-146.33;100.00
54816;BME280;40715;55.752;37.884;2022-12-18T15:20:56;57899.84;;;-146.33;100.00